sensor_id;sensor_type;location;lat;lon;timestamp;P1;durP1;ratioP1;P2;durP2;ratioP2
789;SDS011;378;48.844;9.156;2023-08-12T00:02:00;8.32;;;4.97;;
789;SDS011;378;48.844;9.156;2023-08-12T00:04:27;8.40;;;4.53;;
789;SDS011;378;48.844;9.156;2023-08-12T00:06:54;6.68;;;4.53;;
789;SDS011;378;48.844;9.156;2023-08-12T00:09:21;8.70;;;4.10;;
789;SDS011;378;48.844;9.156;2023-08-12T00:11:48;9.82;;;5.18;;
789;SDS011;378;48.844;9.156;2023-08-12T00:14:15;8.40;;;5.50;;
789;SDS011;378;48.844;9.156;2023-08-12T00:16:41;18.55;;;6.20;;
789;SDS011;378;48.844;9.156;2023-08-12T00:19:10;10.85;;;5.78;;
789;SDS011;378;48.844;9.156;2023-08-12T00:21:36;9.90;;;5.82;;
789;SDS011;378;48.844;9.156;2023-08-12T00:24:04;10.68;;;6.47;;
789;SDS011;378;48.844;9.156;2023-08-12T00:26:31;7.70;;;4.95;;
789;SDS011;378;48.844;9.156;2023-08-12T00:28:58;13.05;;;6.00;;
789;SDS011;378;48.844;9.156;2023-08-12T00:31:24;7.90;;;4.82;;
789;SDS011;378;48.844;9.156;2023-08-12T00:33:51;9.02;;;4.57;;
789;SDS011;378;48.844;9.156;2023-08-12T00:36:19;8.98;;;4.82;;
789;SDS011;378;48.844;9.156;2023-08-12T00:38:46;7.78;;;4.63;;
789;SDS011;378;48.844;9.156;2023-08-12T00:41:13;8.95;;;4.68;;
789;SDS011;378;48.844;9.156;2023-08-12T00:43:40;6.82;;;4.60;;
789;SDS011;378;48.844;9.156;2023-08-12T00:46:07;7.90;;;4.85;;
789;SDS011;378;48.844;9.156;2023-08-12T00:48:34;8.10;;;5.13;;
789;SDS011;378;48.844;9.156;2023-08-12T00:51:00;9.00;;;4.63;;
789;SDS011;378;48.844;9.156;2023-08-12T00:53:29;7.40;;;5.00;;
789;SDS011;378;48.844;9.156;2023-08-12T00:55:56;9.80;;;5.43;;
789;SDS011;378;48.844;9.156;2023-08-12T00:58:23;8.98;;;5.20;;
789;SDS011;378;48.844;9.156;2023-08-12T01:00:50;7.45;;;4.55;;
789;SDS011;378;48.844;9.156;2023-08-12T01:03:17;7.35;;;4.75;;
789;SDS011;378;48.844;9.156;2023-08-12T01:05:45;5.75;;;4.18;;
789;SDS011;378;48.844;9.156;2023-08-12T01:08:13;8.10;;;4.78;;
789;SDS011;378;48.844;9.156;2023-08-12T01:10:49;7.13;;;4.68;;
789;SDS011;378;48.844;9.156;2023-08-12T01:13:26;9.85;;;4.75;;
789;SDS011;378;48.844;9.156;2023-08-12T01:16:00;5.72;;;4.38;;
789;SDS011;378;48.844;9.156;2023-08-12T01:18:30;7.28;;;4.40;;
789;SDS011;378;48.844;9.156;2023-08-12T01:20:58;7.18;;;4.72;;
789;SDS011;378;48.844;9.156;2023-08-12T01:23:26;7.82;;;4.07;;
789;SDS011;378;48.844;9.156;2023-08-12T01:25:53;6.47;;;4.40;;
789;SDS011;378;48.844;9.156;2023-08-12T01:28:20;8.25;;;5.05;;
789;SDS011;378;48.844;9.156;2023-08-12T01:30:49;6.60;;;4.47;;
789;SDS011;378;48.844;9.156;2023-08-12T01:33:24;8.32;;;4.53;;
789;SDS011;378;48.844;9.156;2023-08-12T01:35:58;9.18;;;4.63;;
789;SDS011;378;48.844;9.156;2023-08-12T01:38:33;6.10;;;4.13;;
789;SDS011;378;48.844;9.156;2023-08-12T01:41:01;7.78;;;4.75;;
789;SDS011;378;48.844;9.156;2023-08-12T01:43:29;7.20;;;4.32;;
789;SDS011;378;48.844;9.156;2023-08-12T01:45:56;10.20;;;4.75;;
789;SDS011;378;48.844;9.156;2023-08-12T01:48:24;7.32;;;4.70;;
789;SDS011;378;48.844;9.156;2023-08-12T01:50:50;7.10;;;4.85;;
789;SDS011;378;48.844;9.156;2023-08-12T01:53:17;9.20;;;4.63;;
789;SDS011;378;48.844;9.156;2023-08-12T01:55:45;7.05;;;5.00;;
789;SDS011;378;48.844;9.156;2023-08-12T01:58:12;7.65;;;4.63;;
789;SDS011;378;48.844;9.156;2023-08-12T02:00:39;10.75;;;5.68;;
789;SDS011;378;48.844;9.156;2023-08-12T02:03:06;9.77;;;5.00;;
789;SDS011;378;48.844;9.156;2023-08-12T02:05:33;9.07;;;5.03;;
789;SDS011;378;48.844;9.156;2023-08-12T02:08:02;6.55;;;4.65;;
789;SDS011;378;48.844;9.156;2023-08-12T02:10:29;9.25;;;5.47;;
789;SDS011;378;48.844;9.156;2023-08-12T02:12:58;6.82;;;4.72;;
789;SDS011;378;48.844;9.156;2023-08-12T02:15:25;7.63;;;4.35;;
789;SDS011;378;48.844;9.156;2023-08-12T02:17:52;7.75;;;4.72;;
789;SDS011;378;48.844;9.156;2023-08-12T02:20:19;7.85;;;4.30;;
789;SDS011;378;48.844;9.156;2023-08-12T02:22:46;8.43;;;4.40;;
789;SDS011;378;48.844;9.156;2023-08-12T02:25:13;5.40;;;4.20;;
789;SDS011;378;48.844;9.156;2023-08-12T02:27:40;6.55;;;4.07;;
789;SDS011;378;48.844;9.156;2023-08-12T02:30:09;6.22;;;4.20;;
789;SDS011;378;48.844;9.156;2023-08-12T02:32:36;8.90;;;5.00;;
789;SDS011;378;48.844;9.156;2023-08-12T02:35:03;6.68;;;4.35;;
789;SDS011;378;48.844;9.156;2023-08-12T02:37:30;9.20;;;4.97;;
789;SDS011;378;48.844;9.156;2023-08-12T02:39:57;7.20;;;4.43;;
789;SDS011;378;48.844;9.156;2023-08-12T02:42:24;7.35;;;4.75;;
789;SDS011;378;48.844;9.156;2023-08-12T02:44:51;8.18;;;4.68;;
789;SDS011;378;48.844;9.156;2023-08-12T02:47:19;7.93;;;4.50;;
789;SDS011;378;48.844;9.156;2023-08-12T02:49:46;7.00;;;4.45;;
789;SDS011;378;48.844;9.156;2023-08-12T02:52:13;6.18;;;4.50;;
789;SDS011;378;48.844;9.156;2023-08-12T02:54:40;6.68;;;3.97;;
789;SDS011;378;48.844;9.156;2023-08-12T02:57:07;10.88;;;4.50;;
789;SDS011;378;48.844;9.156;2023-08-12T02:59:33;12.55;;;5.07;;
789;SDS011;378;48.844;9.156;2023-08-12T03:02:00;6.95;;;3.97;;
789;SDS011;378;48.844;9.156;2023-08-12T03:04:29;5.88;;;3.88;;
789;SDS011;378;48.844;9.156;2023-08-12T03:06:56;6.15;;;4.50;;
789;SDS011;378;48.844;9.156;2023-08-12T03:09:23;6.97;;;4.15;;
789;SDS011;378;48.844;9.156;2023-08-12T03:11:50;8.80;;;4.20;;
789;SDS011;378;48.844;9.156;2023-08-12T03:14:16;6.65;;;3.83;;
789;SDS011;378;48.844;9.156;2023-08-12T03:16:43;6.95;;;4.40;;
789;SDS011;378;48.844;9.156;2023-08-12T03:19:10;6.50;;;4.03;;
789;SDS011;378;48.844;9.156;2023-08-12T03:21:38;6.75;;;4.57;;
789;SDS011;378;48.844;9.156;2023-08-12T03:24:05;8.68;;;4.80;;
789;SDS011;378;48.844;9.156;2023-08-12T03:26:32;7.13;;;4.50;;
789;SDS011;378;48.844;9.156;2023-08-12T03:28:59;7.97;;;4.80;;
789;SDS011;378;48.844;9.156;2023-08-12T03:31:26;8.25;;;4.95;;
789;SDS011;378;48.844;9.156;2023-08-12T03:33:53;7.07;;;4.35;;
789;SDS011;378;48.844;9.156;2023-08-12T03:36:20;6.82;;;5.00;;
789;SDS011;378;48.844;9.156;2023-08-12T03:38:48;6.53;;;4.45;;
789;SDS011;378;48.844;9.156;2023-08-12T03:41:15;6.50;;;4.45;;
789;SDS011;378;48.844;9.156;2023-08-12T03:43:42;9.25;;;5.03;;
789;SDS011;378;48.844;9.156;2023-08-12T03:46:08;6.80;;;4.60;;
789;SDS011;378;48.844;9.156;2023-08-12T03:48:35;8.10;;;5.18;;
789;SDS011;378;48.844;9.156;2023-08-12T03:51:02;9.60;;;4.63;;
789;SDS011;378;48.844;9.156;2023-08-12T03:53:29;8.75;;;4.88;;
789;SDS011;378;48.844;9.156;2023-08-12T03:55:57;9.43;;;5.30;;
789;SDS011;378;48.844;9.156;2023-08-12T03:58:24;6.75;;;4.88;;
789;SDS011;378;48.844;9.156;2023-08-12T04:00:51;8.15;;;4.88;;
789;SDS011;378;48.844;9.156;2023-08-12T04:03:17;11.70;;;4.88;;
789;SDS011;378;48.844;9.156;2023-08-12T04:05:48;9.32;;;4.65;;
789;SDS011;378;48.844;9.156;2023-08-12T04:08:17;11.23;;;5.15;;
789;SDS011;378;48.844;9.156;2023-08-12T04:10:45;10.98;;;4.85;;
789;SDS011;378;48.844;9.156;2023-08-12T04:13:14;6.85;;;4.55;;
789;SDS011;378;48.844;9.156;2023-08-12T04:15:41;9.05;;;4.40;;
789;SDS011;378;48.844;9.156;2023-08-12T04:18:08;8.05;;;4.97;;
789;SDS011;378;48.844;9.156;2023-08-12T04:20:36;5.85;;;4.50;;
789;SDS011;378;48.844;9.156;2023-08-12T04:23:03;7.82;;;5.20;;
789;SDS011;378;48.844;9.156;2023-08-12T04:25:30;6.82;;;4.65;;
789;SDS011;378;48.844;9.156;2023-08-12T04:27:57;8.35;;;4.55;;
789;SDS011;378;48.844;9.156;2023-08-12T04:30:25;7.57;;;4.47;;
789;SDS011;378;48.844;9.156;2023-08-12T04:32:52;8.55;;;4.57;;
789;SDS011;378;48.844;9.156;2023-08-12T04:35:19;10.63;;;4.78;;
789;SDS011;378;48.844;9.156;2023-08-12T04:37:46;13.05;;;5.22;;
789;SDS011;378;48.844;9.156;2023-08-12T04:40:13;11.75;;;5.13;;
789;SDS011;378;48.844;9.156;2023-08-12T04:42:39;6.03;;;4.38;;
789;SDS011;378;48.844;9.156;2023-08-12T04:45:06;5.15;;;3.97;;
789;SDS011;378;48.844;9.156;2023-08-12T04:47:35;5.05;;;3.72;;
789;SDS011;378;48.844;9.156;2023-08-12T04:50:03;5.72;;;4.00;;
789;SDS011;378;48.844;9.156;2023-08-12T04:52:31;8.10;;;4.40;;
789;SDS011;378;48.844;9.156;2023-08-12T04:54:58;11.45;;;5.00;;
789;SDS011;378;48.844;9.156;2023-08-12T04:57:25;6.90;;;4.90;;
789;SDS011;378;48.844;9.156;2023-08-12T04:59:52;5.00;;;3.70;;
789;SDS011;378;48.844;9.156;2023-08-12T05:02:20;5.40;;;3.88;;
789;SDS011;378;48.844;9.156;2023-08-12T05:04:48;7.60;;;4.45;;
789;SDS011;378;48.844;9.156;2023-08-12T05:07:16;6.90;;;3.90;;
789;SDS011;378;48.844;9.156;2023-08-12T05:09:43;7.55;;;3.92;;
789;SDS011;378;48.844;9.156;2023-08-12T05:12:10;6.43;;;4.63;;
789;SDS011;378;48.844;9.156;2023-08-12T05:14:38;8.50;;;4.13;;
789;SDS011;378;48.844;9.156;2023-08-12T05:17:06;8.05;;;4.72;;
789;SDS011;378;48.844;9.156;2023-08-12T05:19:33;8.23;;;4.90;;
789;SDS011;378;48.844;9.156;2023-08-12T05:22:01;7.65;;;5.00;;
789;SDS011;378;48.844;9.156;2023-08-12T05:24:28;7.60;;;4.82;;
789;SDS011;378;48.844;9.156;2023-08-12T05:26:55;11.80;;;6.00;;
789;SDS011;378;48.844;9.156;2023-08-12T05:29:22;10.45;;;5.60;;
789;SDS011;378;48.844;9.156;2023-08-12T05:31:49;12.10;;;6.50;;
789;SDS011;378;48.844;9.156;2023-08-12T05:34:15;11.00;;;5.97;;
789;SDS011;378;48.844;9.156;2023-08-12T05:36:42;17.17;;;6.63;;
789;SDS011;378;48.844;9.156;2023-08-12T05:39:10;10.63;;;6.25;;
789;SDS011;378;48.844;9.156;2023-08-12T05:41:37;12.43;;;6.60;;
789;SDS011;378;48.844;9.156;2023-08-12T05:44:05;10.13;;;5.57;;
789;SDS011;378;48.844;9.156;2023-08-12T05:46:32;9.05;;;5.50;;
789;SDS011;378;48.844;9.156;2023-08-12T05:48:58;8.00;;;5.30;;
789;SDS011;378;48.844;9.156;2023-08-12T05:51:25;8.88;;;5.40;;
789;SDS011;378;48.844;9.156;2023-08-12T05:53:52;10.90;;;5.80;;
789;SDS011;378;48.844;9.156;2023-08-12T05:56:20;10.15;;;5.45;;
789;SDS011;378;48.844;9.156;2023-08-12T05:58:47;10.30;;;5.45;;
789;SDS011;378;48.844;9.156;2023-08-12T06:01:14;7.70;;;5.18;;
789;SDS011;378;48.844;9.156;2023-08-12T06:03:41;12.98;;;6.25;;
789;SDS011;378;48.844;9.156;2023-08-12T06:06:08;9.40;;;6.60;;
789;SDS011;378;48.844;9.156;2023-08-12T06:08:34;15.55;;;6.75;;
789;SDS011;378;48.844;9.156;2023-08-12T06:11:01;12.10;;;6.47;;
789;SDS011;378;48.844;9.156;2023-08-12T06:13:30;9.32;;;6.05;;
789;SDS011;378;48.844;9.156;2023-08-12T06:15:56;8.38;;;5.60;;
789;SDS011;378;48.844;9.156;2023-08-12T06:18:23;11.00;;;6.82;;
789;SDS011;378;48.844;9.156;2023-08-12T06:20:50;8.77;;;5.90;;
789;SDS011;378;48.844;9.156;2023-08-12T06:23:17;10.20;;;6.20;;
789;SDS011;378;48.844;9.156;2023-08-12T06:25:44;9.02;;;6.53;;
789;SDS011;378;48.844;9.156;2023-08-12T06:28:11;16.20;;;7.82;;
789;SDS011;378;48.844;9.156;2023-08-12T06:30:39;10.90;;;6.72;;
789;SDS011;378;48.844;9.156;2023-08-12T06:33:06;12.60;;;8.43;;
789;SDS011;378;48.844;9.156;2023-08-12T06:35:33;17.05;;;8.82;;
789;SDS011;378;48.844;9.156;2023-08-12T06:38:00;11.90;;;8.07;;
789;SDS011;378;48.844;9.156;2023-08-12T06:40:27;11.43;;;7.35;;
789;SDS011;378;48.844;9.156;2023-08-12T06:42:55;14.15;;;8.45;;
789;SDS011;378;48.844;9.156;2023-08-12T06:45:22;8.32;;;6.15;;
789;SDS011;378;48.844;9.156;2023-08-12T06:47:51;9.73;;;6.15;;
789;SDS011;378;48.844;9.156;2023-08-12T06:50:18;11.00;;;6.82;;
789;SDS011;378;48.844;9.156;2023-08-12T06:52:44;11.00;;;6.93;;
789;SDS011;378;48.844;9.156;2023-08-12T06:55:11;7.30;;;5.80;;
789;SDS011;378;48.844;9.156;2023-08-12T06:57:38;10.82;;;6.00;;
789;SDS011;378;48.844;9.156;2023-08-12T07:00:05;8.68;;;5.93;;
789;SDS011;378;48.844;9.156;2023-08-12T07:02:33;9.90;;;6.10;;
789;SDS011;378;48.844;9.156;2023-08-12T07:05:02;7.15;;;5.00;;
789;SDS011;378;48.844;9.156;2023-08-12T07:07:29;11.52;;;6.68;;
789;SDS011;378;48.844;9.156;2023-08-12T07:09:56;10.68;;;7.30;;
789;SDS011;378;48.844;9.156;2023-08-12T07:12:23;8.00;;;5.35;;
789;SDS011;378;48.844;9.156;2023-08-12T07:14:50;7.03;;;5.07;;
789;SDS011;378;48.844;9.156;2023-08-12T07:17:17;5.90;;;4.70;;
789;SDS011;378;48.844;9.156;2023-08-12T07:19:44;7.22;;;4.65;;
789;SDS011;378;48.844;9.156;2023-08-12T07:22:12;7.00;;;4.72;;
789;SDS011;378;48.844;9.156;2023-08-12T07:24:39;6.30;;;4.43;;
789;SDS011;378;48.844;9.156;2023-08-12T07:27:05;6.78;;;4.93;;
789;SDS011;378;48.844;9.156;2023-08-12T07:29:32;5.93;;;4.95;;
789;SDS011;378;48.844;9.156;2023-08-12T07:31:59;5.68;;;4.40;;
789;SDS011;378;48.844;9.156;2023-08-12T07:34:26;5.53;;;4.40;;
789;SDS011;378;48.844;9.156;2023-08-12T07:36:53;5.35;;;4.32;;
789;SDS011;378;48.844;9.156;2023-08-12T07:39:21;7.00;;;5.15;;
789;SDS011;378;48.844;9.156;2023-08-12T07:41:48;6.07;;;4.97;;
789;SDS011;378;48.844;9.156;2023-08-12T07:44:15;6.07;;;4.75;;
789;SDS011;378;48.844;9.156;2023-08-12T07:46:42;8.35;;;5.40;;
789;SDS011;378;48.844;9.156;2023-08-12T07:49:08;8.13;;;5.70;;
789;SDS011;378;48.844;9.156;2023-08-12T07:51:36;5.97;;;4.43;;
789;SDS011;378;48.844;9.156;2023-08-12T07:54:03;6.07;;;4.30;;
789;SDS011;378;48.844;9.156;2023-08-12T07:56:32;6.60;;;4.80;;
789;SDS011;378;48.844;9.156;2023-08-12T07:58:58;9.20;;;5.75;;
789;SDS011;378;48.844;9.156;2023-08-12T08:01:25;5.72;;;4.50;;
789;SDS011;378;48.844;9.156;2023-08-12T08:03:52;5.82;;;4.78;;
789;SDS011;378;48.844;9.156;2023-08-12T08:06:19;6.07;;;4.65;;
789;SDS011;378;48.844;9.156;2023-08-12T08:08:46;4.45;;;3.97;;
789;SDS011;378;48.844;9.156;2023-08-12T08:11:13;6.75;;;4.60;;
789;SDS011;378;48.844;9.156;2023-08-12T08:13:41;6.65;;;4.65;;
789;SDS011;378;48.844;9.156;2023-08-12T08:16:08;6.93;;;3.83;;
789;SDS011;378;48.844;9.156;2023-08-12T08:18:35;7.68;;;4.50;;
789;SDS011;378;48.844;9.156;2023-08-12T08:21:02;9.00;;;4.63;;
789;SDS011;378;48.844;9.156;2023-08-12T08:23:28;7.55;;;4.57;;
789;SDS011;378;48.844;9.156;2023-08-12T08:25:55;6.18;;;4.30;;
789;SDS011;378;48.844;9.156;2023-08-12T08:28:22;6.07;;;4.30;;
789;SDS011;378;48.844;9.156;2023-08-12T08:30:50;8.90;;;4.32;;
789;SDS011;378;48.844;9.156;2023-08-12T08:33:17;5.72;;;4.13;;
789;SDS011;378;48.844;9.156;2023-08-12T08:35:44;5.88;;;4.18;;
789;SDS011;378;48.844;9.156;2023-08-12T08:38:11;7.47;;;4.00;;
789;SDS011;378;48.844;9.156;2023-08-12T08:40:38;6.13;;;4.35;;
789;SDS011;378;48.844;9.156;2023-08-12T08:43:05;7.65;;;5.05;;
789;SDS011;378;48.844;9.156;2023-08-12T08:45:34;6.05;;;4.10;;
789;SDS011;378;48.844;9.156;2023-08-12T08:48:03;5.18;;;4.00;;
789;SDS011;378;48.844;9.156;2023-08-12T08:50:32;5.45;;;4.07;;
789;SDS011;378;48.844;9.156;2023-08-12T08:53:01;6.90;;;4.32;;
789;SDS011;378;48.844;9.156;2023-08-12T08:55:31;9.38;;;4.20;;
789;SDS011;378;48.844;9.156;2023-08-12T08:57:58;7.78;;;4.30;;
789;SDS011;378;48.844;9.156;2023-08-12T09:00:25;8.95;;;4.20;;
789;SDS011;378;48.844;9.156;2023-08-12T09:02:53;8.00;;;4.32;;
789;SDS011;378;48.844;9.156;2023-08-12T09:05:24;8.75;;;4.35;;
789;SDS011;378;48.844;9.156;2023-08-12T09:07:52;6.55;;;4.05;;
789;SDS011;378;48.844;9.156;2023-08-12T09:10:21;4.65;;;3.92;;
789;SDS011;378;48.844;9.156;2023-08-12T09:12:52;5.65;;;3.83;;
789;SDS011;378;48.844;9.156;2023-08-12T09:15:20;5.90;;;4.10;;
789;SDS011;378;48.844;9.156;2023-08-12T09:17:48;4.40;;;3.60;;
789;SDS011;378;48.844;9.156;2023-08-12T09:20:14;8.40;;;4.30;;
789;SDS011;378;48.844;9.156;2023-08-12T09:22:44;6.50;;;4.18;;
789;SDS011;378;48.844;9.156;2023-08-12T09:25:13;6.80;;;4.07;;
789;SDS011;378;48.844;9.156;2023-08-12T09:27:41;6.70;;;4.05;;
789;SDS011;378;48.844;9.156;2023-08-12T09:30:08;6.28;;;3.70;;
789;SDS011;378;48.844;9.156;2023-08-12T09:32:38;6.13;;;3.90;;
789;SDS011;378;48.844;9.156;2023-08-12T09:35:05;4.72;;;3.58;;
789;SDS011;378;48.844;9.156;2023-08-12T09:40:38;6.72;;;4.45;;
789;SDS011;378;48.844;9.156;2023-08-12T09:43:06;5.22;;;3.70;;
789;SDS011;378;48.844;9.156;2023-08-12T09:45:33;4.68;;;3.58;;
789;SDS011;378;48.844;9.156;2023-08-12T09:48:01;6.70;;;4.20;;
789;SDS011;378;48.844;9.156;2023-08-12T09:50:28;5.47;;;3.83;;
789;SDS011;378;48.844;9.156;2023-08-12T09:52:55;6.10;;;4.05;;
789;SDS011;378;48.844;9.156;2023-08-12T09:55:24;7.18;;;3.75;;
789;SDS011;378;48.844;9.156;2023-08-12T09:57:52;5.93;;;4.13;;
789;SDS011;378;48.844;9.156;2023-08-12T10:00:21;4.35;;;3.55;;
789;SDS011;378;48.844;9.156;2023-08-12T10:02:51;7.85;;;4.22;;
789;SDS011;378;48.844;9.156;2023-08-12T10:05:19;5.35;;;3.45;;
789;SDS011;378;48.844;9.156;2023-08-12T10:07:51;7.53;;;3.70;;
789;SDS011;378;48.844;9.156;2023-08-12T10:10:19;6.63;;;3.55;;
789;SDS011;378;48.844;9.156;2023-08-12T10:12:50;9.10;;;3.65;;
789;SDS011;378;48.844;9.156;2023-08-12T10:15:20;6.38;;;3.58;;
789;SDS011;378;48.844;9.156;2023-08-12T10:17:51;7.68;;;3.45;;
789;SDS011;378;48.844;9.156;2023-08-12T10:20:21;5.22;;;3.70;;
789;SDS011;378;48.844;9.156;2023-08-12T10:22:57;8.35;;;4.22;;
789;SDS011;378;48.844;9.156;2023-08-12T10:25:36;4.32;;;3.38;;
789;SDS011;378;48.844;9.156;2023-08-12T10:28:09;4.40;;;2.70;;
789;SDS011;378;48.844;9.156;2023-08-12T10:30:37;5.40;;;3.15;;
789;SDS011;378;48.844;9.156;2023-08-12T10:33:08;7.57;;;2.35;;
789;SDS011;378;48.844;9.156;2023-08-12T10:35:40;4.93;;;2.60;;
789;SDS011;378;48.844;9.156;2023-08-12T10:38:11;3.38;;;2.25;;
789;SDS011;378;48.844;9.156;2023-08-12T10:40:40;3.35;;;2.40;;
789;SDS011;378;48.844;9.156;2023-08-12T10:43:07;5.90;;;2.83;;
789;SDS011;378;48.844;9.156;2023-08-12T10:45:46;4.93;;;2.65;;
789;SDS011;378;48.844;9.156;2023-08-12T10:51:03;4.93;;;2.60;;
789;SDS011;378;48.844;9.156;2023-08-12T10:54:04;3.53;;;2.50;;
789;SDS011;378;48.844;9.156;2023-08-12T10:59:54;6.65;;;2.40;;
789;SDS011;378;48.844;9.156;2023-08-12T11:02:31;4.70;;;2.47;;
789;SDS011;378;48.844;9.156;2023-08-12T11:05:00;3.78;;;2.67;;
789;SDS011;378;48.844;9.156;2023-08-12T11:07:32;7.38;;;2.55;;
789;SDS011;378;48.844;9.156;2023-08-12T11:10:03;6.45;;;2.50;;
789;SDS011;378;48.844;9.156;2023-08-12T11:12:33;5.85;;;2.83;;
789;SDS011;378;48.844;9.156;2023-08-12T11:15:03;3.92;;;2.40;;
789;SDS011;378;48.844;9.156;2023-08-12T11:17:34;4.32;;;3.00;;
789;SDS011;378;48.844;9.156;2023-08-12T11:20:03;5.55;;;2.88;;
789;SDS011;378;48.844;9.156;2023-08-12T11:22:32;4.18;;;2.28;;
789;SDS011;378;48.844;9.156;2023-08-12T11:25:03;3.42;;;2.35;;
789;SDS011;378;48.844;9.156;2023-08-12T11:27:39;5.00;;;2.40;;
789;SDS011;378;48.844;9.156;2023-08-12T11:30:09;5.05;;;2.38;;
789;SDS011;378;48.844;9.156;2023-08-12T11:32:37;4.53;;;2.85;;
789;SDS011;378;48.844;9.156;2023-08-12T11:35:05;3.05;;;2.28;;
789;SDS011;378;48.844;9.156;2023-08-12T11:37:33;4.05;;;2.50;;
789;SDS011;378;48.844;9.156;2023-08-12T11:40:01;4.45;;;2.40;;
789;SDS011;378;48.844;9.156;2023-08-12T11:42:29;4.80;;;2.70;;
789;SDS011;378;48.844;9.156;2023-08-12T11:44:56;3.58;;;2.45;;
789;SDS011;378;48.844;9.156;2023-08-12T11:47:24;5.07;;;2.67;;
789;SDS011;378;48.844;9.156;2023-08-12T11:49:52;6.47;;;2.63;;
789;SDS011;378;48.844;9.156;2023-08-12T11:52:19;9.10;;;2.50;;
789;SDS011;378;48.844;9.156;2023-08-12T11:54:46;5.80;;;2.40;;
789;SDS011;378;48.844;9.156;2023-08-12T11:57:15;7.78;;;2.45;;
789;SDS011;378;48.844;9.156;2023-08-12T11:59:42;5.32;;;2.20;;
789;SDS011;378;48.844;9.156;2023-08-12T12:02:10;9.07;;;2.50;;
789;SDS011;378;48.844;9.156;2023-08-12T12:04:39;7.03;;;2.65;;
789;SDS011;378;48.844;9.156;2023-08-12T12:07:19;11.90;;;3.10;;
789;SDS011;378;48.844;9.156;2023-08-12T12:09:46;5.65;;;1.80;;
789;SDS011;378;48.844;9.156;2023-08-12T12:12:16;6.05;;;1.67;;
789;SDS011;378;48.844;9.156;2023-08-12T12:14:43;9.73;;;2.42;;
789;SDS011;378;48.844;9.156;2023-08-12T12:17:14;7.75;;;1.60;;
789;SDS011;378;48.844;9.156;2023-08-12T12:19:42;4.13;;;1.92;;
789;SDS011;378;48.844;9.156;2023-08-12T12:22:09;4.70;;;1.52;;
789;SDS011;378;48.844;9.156;2023-08-12T12:27:23;8.32;;;2.70;;
789;SDS011;378;48.844;9.156;2023-08-12T12:29:51;9.50;;;3.53;;
789;SDS011;378;48.844;9.156;2023-08-12T12:32:18;13.38;;;3.13;;
789;SDS011;378;48.844;9.156;2023-08-12T12:34:47;13.20;;;3.40;;
789;SDS011;378;48.844;9.156;2023-08-12T12:37:13;11.70;;;3.63;;
789;SDS011;378;48.844;9.156;2023-08-12T12:39:40;7.78;;;4.10;;
789;SDS011;378;48.844;9.156;2023-08-12T12:42:08;8.20;;;3.92;;
789;SDS011;378;48.844;9.156;2023-08-12T12:44:36;11.05;;;4.28;;
789;SDS011;378;48.844;9.156;2023-08-12T12:47:03;7.90;;;4.00;;
789;SDS011;378;48.844;9.156;2023-08-12T12:49:30;9.25;;;4.18;;
789;SDS011;378;48.844;9.156;2023-08-12T12:51:58;5.07;;;3.67;;
789;SDS011;378;48.844;9.156;2023-08-12T12:54:25;10.40;;;3.60;;
789;SDS011;378;48.844;9.156;2023-08-12T12:56:52;7.72;;;3.25;;
789;SDS011;378;48.844;9.156;2023-08-12T12:59:19;8.35;;;3.70;;
789;SDS011;378;48.844;9.156;2023-08-12T13:01:46;4.82;;;3.22;;
789;SDS011;378;48.844;9.156;2023-08-12T13:04:13;5.75;;;3.00;;
789;SDS011;378;48.844;9.156;2023-08-12T13:06:40;5.00;;;3.25;;
789;SDS011;378;48.844;9.156;2023-08-12T13:09:08;4.32;;;2.97;;
789;SDS011;378;48.844;9.156;2023-08-12T13:11:35;12.48;;;5.90;;
789;SDS011;378;48.844;9.156;2023-08-12T13:14:06;19.95;;;8.23;;
789;SDS011;378;48.844;9.156;2023-08-12T13:16:35;13.18;;;8.10;;
789;SDS011;378;48.844;9.156;2023-08-12T13:19:09;10.23;;;5.78;;
789;SDS011;378;48.844;9.156;2023-08-12T13:21:42;9.48;;;4.97;;
789;SDS011;378;48.844;9.156;2023-08-12T13:24:19;9.63;;;5.18;;
789;SDS011;378;48.844;9.156;2023-08-12T13:26:48;6.25;;;4.45;;
789;SDS011;378;48.844;9.156;2023-08-12T13:29:25;6.32;;;4.53;;
789;SDS011;378;48.844;9.156;2023-08-12T13:32:01;7.90;;;4.53;;
789;SDS011;378;48.844;9.156;2023-08-12T13:34:37;6.80;;;4.70;;
789;SDS011;378;48.844;9.156;2023-08-12T13:37:04;7.47;;;4.38;;
789;SDS011;378;48.844;9.156;2023-08-12T13:39:32;7.40;;;5.13;;
789;SDS011;378;48.844;9.156;2023-08-12T13:41:58;8.00;;;5.15;;
789;SDS011;378;48.844;9.156;2023-08-12T13:44:25;10.45;;;5.47;;
789;SDS011;378;48.844;9.156;2023-08-12T13:46:52;9.70;;;5.20;;
789;SDS011;378;48.844;9.156;2023-08-12T13:49:19;8.68;;;4.75;;
789;SDS011;378;48.844;9.156;2023-08-12T13:51:46;6.50;;;4.68;;
789;SDS011;378;48.844;9.156;2023-08-12T13:54:13;10.10;;;6.28;;
789;SDS011;378;48.844;9.156;2023-08-12T13:56:41;8.55;;;5.75;;
789;SDS011;378;48.844;9.156;2023-08-12T13:59:08;8.63;;;5.57;;
789;SDS011;378;48.844;9.156;2023-08-12T14:01:34;10.43;;;5.60;;
789;SDS011;378;48.844;9.156;2023-08-12T14:04:02;11.23;;;5.70;;
789;SDS011;378;48.844;9.156;2023-08-12T14:06:29;6.82;;;5.10;;
789;SDS011;378;48.844;9.156;2023-08-12T14:08:56;9.52;;;6.00;;
789;SDS011;378;48.844;9.156;2023-08-12T14:11:23;9.30;;;5.60;;
789;SDS011;378;48.844;9.156;2023-08-12T14:13:51;13.32;;;7.20;;
789;SDS011;378;48.844;9.156;2023-08-12T14:16:18;8.45;;;5.90;;
789;SDS011;378;48.844;9.156;2023-08-12T14:18:45;10.50;;;5.57;;
789;SDS011;378;48.844;9.156;2023-08-12T14:21:12;8.60;;;5.47;;
789;SDS011;378;48.844;9.156;2023-08-12T14:23:38;9.50;;;5.45;;
789;SDS011;378;48.844;9.156;2023-08-12T14:26:05;7.75;;;5.18;;
789;SDS011;378;48.844;9.156;2023-08-12T14:28:32;7.28;;;4.53;;
789;SDS011;378;48.844;9.156;2023-08-12T14:31:00;7.55;;;5.10;;
789;SDS011;378;48.844;9.156;2023-08-12T14:33:28;5.90;;;4.40;;
789;SDS011;378;48.844;9.156;2023-08-12T14:35:57;7.05;;;4.95;;
789;SDS011;378;48.844;9.156;2023-08-12T14:38:23;7.18;;;4.43;;
789;SDS011;378;48.844;9.156;2023-08-12T14:40:50;7.03;;;5.28;;
789;SDS011;378;48.844;9.156;2023-08-12T14:43:17;7.40;;;4.78;;
789;SDS011;378;48.844;9.156;2023-08-12T14:45:48;6.88;;;5.00;;
789;SDS011;378;48.844;9.156;2023-08-12T14:48:16;6.13;;;4.82;;
789;SDS011;378;48.844;9.156;2023-08-12T14:50:43;7.75;;;5.28;;
789;SDS011;378;48.844;9.156;2023-08-12T14:53:10;7.82;;;4.70;;
789;SDS011;378;48.844;9.156;2023-08-12T14:55:37;9.43;;;5.25;;
789;SDS011;378;48.844;9.156;2023-08-12T14:58:04;7.63;;;5.30;;
789;SDS011;378;48.844;9.156;2023-08-12T15:00:31;10.75;;;5.40;;
789;SDS011;378;48.844;9.156;2023-08-12T15:02:58;8.32;;;5.10;;
789;SDS011;378;48.844;9.156;2023-08-12T15:05:26;6.85;;;4.63;;
789;SDS011;378;48.844;9.156;2023-08-12T15:07:53;9.77;;;4.80;;
789;SDS011;378;48.844;9.156;2023-08-12T15:10:20;6.45;;;4.65;;
789;SDS011;378;48.844;9.156;2023-08-12T15:12:47;5.40;;;4.25;;
789;SDS011;378;48.844;9.156;2023-08-12T15:15:14;8.88;;;4.43;;
789;SDS011;378;48.844;9.156;2023-08-12T15:17:41;8.48;;;4.25;;
789;SDS011;378;48.844;9.156;2023-08-12T15:20:08;6.60;;;4.18;;
789;SDS011;378;48.844;9.156;2023-08-12T15:22:37;6.07;;;4.20;;
789;SDS011;378;48.844;9.156;2023-08-12T15:25:04;8.55;;;4.15;;
789;SDS011;378;48.844;9.156;2023-08-12T15:27:32;7.32;;;4.00;;
789;SDS011;378;48.844;9.156;2023-08-12T15:29:58;6.00;;;4.07;;
789;SDS011;378;48.844;9.156;2023-08-12T15:32:26;5.63;;;3.83;;
789;SDS011;378;48.844;9.156;2023-08-12T15:34:53;5.50;;;3.72;;
789;SDS011;378;48.844;9.156;2023-08-12T15:37:20;5.82;;;3.72;;
789;SDS011;378;48.844;9.156;2023-08-12T15:39:48;4.32;;;3.53;;
789;SDS011;378;48.844;9.156;2023-08-12T15:42:15;3.17;;;2.70;;
789;SDS011;378;48.844;9.156;2023-08-12T15:44:42;5.93;;;3.60;;
789;SDS011;378;48.844;9.156;2023-08-12T15:47:09;5.93;;;3.92;;
789;SDS011;378;48.844;9.156;2023-08-12T15:49:35;4.05;;;3.58;;
789;SDS011;378;48.844;9.156;2023-08-12T15:52:02;4.05;;;3.33;;
789;SDS011;378;48.844;9.156;2023-08-12T15:54:30;4.50;;;3.00;;
789;SDS011;378;48.844;9.156;2023-08-12T15:56:58;5.45;;;3.90;;
789;SDS011;378;48.844;9.156;2023-08-12T15:59:24;3.70;;;2.95;;